<?xml version="1.0" encoding="UTF-8" standalone="no" ?>
<gpx xmlns="http://www.topografix.com/GPX/1/1" xmlns:xsi="http://www.w3.org/2001/XMLSchema-instance" xsi:schemaLocation="http://www.topografix.com/GPX/1/1 http://www.topografix.com/GPX/1/1/gpx.xsd" version="1.1" creator="VisuGPX - https://www.visugpx.com">
  <metadata>
    <name>Lac de Villefort - 7km</name>
    <desc><![CDATA[Walkmeter Marche 16 août 2012 14:39:08]]></desc>
  </metadata>
  <trk>
    <name><![CDATA[Vacances Aout 2012]]></name>
    <trkseg>
      <trkpt lat="44.45815" lon="3.92925">
        <ele>626.4</ele>
        <time>2012-08-16T12:39:08Z</time>
      </trkpt>
      <trkpt lat="44.45816" lon="3.92909">
        <ele>632.6</ele>
        <time>2012-08-16T12:39:16Z</time>
      </trkpt>
      <trkpt lat="44.45816" lon="3.92909">
        <ele>632.6</ele>
        <time>2012-08-16T12:41:08Z</time>
      </trkpt>
      <trkpt lat="44.45815" lon="3.92896">
        <ele>636.7</ele>
        <time>2012-08-16T12:41:24Z</time>
      </trkpt>
      <trkpt lat="44.45829" lon="3.92893">
        <ele>636.7</ele>
        <time>2012-08-16T12:41:37Z</time>
      </trkpt>
      <trkpt lat="44.45843" lon="3.92891">
        <ele>636.7</ele>
        <time>2012-08-16T12:41:51Z</time>
      </trkpt>
      <trkpt lat="44.45857" lon="3.92879">
        <ele>636.7</ele>
        <time>2012-08-16T12:42:02Z</time>
      </trkpt>
      <trkpt lat="44.45867" lon="3.92864">
        <ele>636.7</ele>
        <time>2012-08-16T12:42:18Z</time>
      </trkpt>
      <trkpt lat="44.45877" lon="3.92847">
        <ele>636.7</ele>
        <time>2012-08-16T12:42:31Z</time>
      </trkpt>
      <trkpt lat="44.45888" lon="3.92835">
        <ele>636.7</ele>
        <time>2012-08-16T12:42:40Z</time>
      </trkpt>
      <trkpt lat="44.45897" lon="3.92817">
        <ele>636.7</ele>
        <time>2012-08-16T12:42:53Z</time>
      </trkpt>
      <trkpt lat="44.45902" lon="3.92799">
        <ele>636.7</ele>
        <time>2012-08-16T12:43:13Z</time>
      </trkpt>
      <trkpt lat="44.45909" lon="3.92782">
        <ele>636.7</ele>
        <time>2012-08-16T12:43:26Z</time>
      </trkpt>
      <trkpt lat="44.45909" lon="3.92763">
        <ele>626.7</ele>
        <time>2012-08-16T12:43:53Z</time>
      </trkpt>
      <trkpt lat="44.45911" lon="3.92744">
        <ele>625.1</ele>
        <time>2012-08-16T12:44:08Z</time>
      </trkpt>
      <trkpt lat="44.45925" lon="3.92741">
        <ele>625.1</ele>
        <time>2012-08-16T12:44:25Z</time>
      </trkpt>
      <trkpt lat="44.45939" lon="3.92744">
        <ele>625.1</ele>
        <time>2012-08-16T12:44:39Z</time>
      </trkpt>
      <trkpt lat="44.45949" lon="3.92758">
        <ele>625.1</ele>
        <time>2012-08-16T12:44:54Z</time>
      </trkpt>
      <trkpt lat="44.45962" lon="3.92784">
        <ele>626.2</ele>
        <time>2012-08-16T12:45:13Z</time>
      </trkpt>
      <trkpt lat="44.45962" lon="3.92784">
        <ele>626.2</ele>
        <time>2012-08-16T12:46:11Z</time>
      </trkpt>
      <trkpt lat="44.45974" lon="3.92792">
        <ele>627.2</ele>
        <time>2012-08-16T12:46:11Z</time>
      </trkpt>
      <trkpt lat="44.45988" lon="3.9279">
        <ele>628.6</ele>
        <time>2012-08-16T12:46:28Z</time>
      </trkpt>
      <trkpt lat="44.46002" lon="3.92789">
        <ele>629.7</ele>
        <time>2012-08-16T12:46:42Z</time>
      </trkpt>
      <trkpt lat="44.46016" lon="3.92787">
        <ele>631</ele>
        <time>2012-08-16T12:46:57Z</time>
      </trkpt>
      <trkpt lat="44.4603" lon="3.92784">
        <ele>632.2</ele>
        <time>2012-08-16T12:47:12Z</time>
      </trkpt>
      <trkpt lat="44.46044" lon="3.92784">
        <ele>633</ele>
        <time>2012-08-16T12:47:22Z</time>
      </trkpt>
      <trkpt lat="44.46057" lon="3.9278">
        <ele>634.1</ele>
        <time>2012-08-16T12:47:35Z</time>
      </trkpt>
      <trkpt lat="44.4608" lon="3.92755">
        <ele>633.6</ele>
        <time>2012-08-16T12:48:05Z</time>
      </trkpt>
      <trkpt lat="44.4608" lon="3.92755">
        <ele>633.6</ele>
        <time>2012-08-16T12:49:33Z</time>
      </trkpt>
      <trkpt lat="44.46089" lon="3.92739">
        <ele>632.1</ele>
        <time>2012-08-16T12:49:34Z</time>
      </trkpt>
      <trkpt lat="44.46102" lon="3.92729">
        <ele>632.1</ele>
        <time>2012-08-16T12:49:47Z</time>
      </trkpt>
      <trkpt lat="44.46115" lon="3.92721">
        <ele>632.1</ele>
        <time>2012-08-16T12:49:57Z</time>
      </trkpt>
      <trkpt lat="44.46132" lon="3.92713">
        <ele>632.1</ele>
        <time>2012-08-16T12:50:09Z</time>
      </trkpt>
      <trkpt lat="44.46144" lon="3.92703">
        <ele>632.1</ele>
        <time>2012-08-16T12:50:25Z</time>
      </trkpt>
      <trkpt lat="44.46157" lon="3.92696">
        <ele>632.1</ele>
        <time>2012-08-16T12:50:38Z</time>
      </trkpt>
      <trkpt lat="44.46171" lon="3.92701">
        <ele>632.1</ele>
        <time>2012-08-16T12:50:53Z</time>
      </trkpt>
      <trkpt lat="44.46183" lon="3.92711">
        <ele>632.1</ele>
        <time>2012-08-16T12:51:06Z</time>
      </trkpt>
      <trkpt lat="44.46195" lon="3.92722">
        <ele>632.1</ele>
        <time>2012-08-16T12:51:17Z</time>
      </trkpt>
      <trkpt lat="44.46209" lon="3.92723">
        <ele>632.1</ele>
        <time>2012-08-16T12:51:27Z</time>
      </trkpt>
      <trkpt lat="44.46219" lon="3.92708">
        <ele>632.1</ele>
        <time>2012-08-16T12:51:43Z</time>
      </trkpt>
      <trkpt lat="44.46224" lon="3.9269">
        <ele>632.1</ele>
        <time>2012-08-16T12:51:55Z</time>
      </trkpt>
      <trkpt lat="44.46235" lon="3.92677">
        <ele>632.1</ele>
        <time>2012-08-16T12:52:05Z</time>
      </trkpt>
      <trkpt lat="44.46248" lon="3.92673">
        <ele>632.1</ele>
        <time>2012-08-16T12:52:14Z</time>
      </trkpt>
      <trkpt lat="44.46261" lon="3.9268">
        <ele>632.1</ele>
        <time>2012-08-16T12:52:26Z</time>
      </trkpt>
      <trkpt lat="44.46275" lon="3.92685">
        <ele>632.1</ele>
        <time>2012-08-16T12:52:36Z</time>
      </trkpt>
      <trkpt lat="44.46289" lon="3.92689">
        <ele>627.7</ele>
        <time>2012-08-16T12:52:47Z</time>
      </trkpt>
      <trkpt lat="44.46303" lon="3.92689">
        <ele>619.9</ele>
        <time>2012-08-16T12:52:59Z</time>
      </trkpt>
      <trkpt lat="44.46312" lon="3.92674">
        <ele>626.3</ele>
        <time>2012-08-16T12:53:18Z</time>
      </trkpt>
      <trkpt lat="44.46315" lon="3.92655">
        <ele>633.3</ele>
        <time>2012-08-16T12:53:31Z</time>
      </trkpt>
      <trkpt lat="44.46318" lon="3.92635">
        <ele>635.9</ele>
        <time>2012-08-16T12:53:43Z</time>
      </trkpt>
      <trkpt lat="44.4633" lon="3.92625">
        <ele>635.9</ele>
        <time>2012-08-16T12:53:54Z</time>
      </trkpt>
      <trkpt lat="44.46344" lon="3.92622">
        <ele>635.9</ele>
        <time>2012-08-16T12:54:05Z</time>
      </trkpt>
      <trkpt lat="44.46357" lon="3.92618">
        <ele>635.9</ele>
        <time>2012-08-16T12:54:17Z</time>
      </trkpt>
      <trkpt lat="44.46372" lon="3.92614">
        <ele>635.9</ele>
        <time>2012-08-16T12:54:27Z</time>
      </trkpt>
      <trkpt lat="44.46386" lon="3.92609">
        <ele>635.9</ele>
        <time>2012-08-16T12:54:39Z</time>
      </trkpt>
      <trkpt lat="44.464" lon="3.92606">
        <ele>635.9</ele>
        <time>2012-08-16T12:54:48Z</time>
      </trkpt>
      <trkpt lat="44.46415" lon="3.92605">
        <ele>629.1</ele>
        <time>2012-08-16T12:55:00Z</time>
      </trkpt>
      <trkpt lat="44.46427" lon="3.92614">
        <ele>623.4</ele>
        <time>2012-08-16T12:55:16Z</time>
      </trkpt>
      <trkpt lat="44.46439" lon="3.92626">
        <ele>623.4</ele>
        <time>2012-08-16T12:55:28Z</time>
      </trkpt>
      <trkpt lat="44.46446" lon="3.92644">
        <ele>623.4</ele>
        <time>2012-08-16T12:55:45Z</time>
      </trkpt>
      <trkpt lat="44.46455" lon="3.92658">
        <ele>623.4</ele>
        <time>2012-08-16T12:55:56Z</time>
      </trkpt>
      <trkpt lat="44.46466" lon="3.9267">
        <ele>625.5</ele>
        <time>2012-08-16T12:56:16Z</time>
      </trkpt>
      <trkpt lat="44.46471" lon="3.92652">
        <ele>631.8</ele>
        <time>2012-08-16T12:56:28Z</time>
      </trkpt>
      <trkpt lat="44.4648" lon="3.92636">
        <ele>637.6</ele>
        <time>2012-08-16T12:56:39Z</time>
      </trkpt>
      <trkpt lat="44.46493" lon="3.92629">
        <ele>644</ele>
        <time>2012-08-16T12:56:51Z</time>
      </trkpt>
      <trkpt lat="44.46508" lon="3.92627">
        <ele>644</ele>
        <time>2012-08-16T12:57:03Z</time>
      </trkpt>
      <trkpt lat="44.46521" lon="3.92624">
        <ele>640.9</ele>
        <time>2012-08-16T12:57:14Z</time>
      </trkpt>
      <trkpt lat="44.46535" lon="3.92621">
        <ele>636.6</ele>
        <time>2012-08-16T12:57:24Z</time>
      </trkpt>
      <trkpt lat="44.46549" lon="3.92621">
        <ele>633.5</ele>
        <time>2012-08-16T12:57:35Z</time>
      </trkpt>
      <trkpt lat="44.46563" lon="3.92619">
        <ele>633.5</ele>
        <time>2012-08-16T12:57:48Z</time>
      </trkpt>
      <trkpt lat="44.46577" lon="3.92615">
        <ele>633.5</ele>
        <time>2012-08-16T12:57:59Z</time>
      </trkpt>
      <trkpt lat="44.46592" lon="3.92616">
        <ele>633.5</ele>
        <time>2012-08-16T12:58:11Z</time>
      </trkpt>
      <trkpt lat="44.46606" lon="3.92619">
        <ele>633.5</ele>
        <time>2012-08-16T12:58:26Z</time>
      </trkpt>
      <trkpt lat="44.46619" lon="3.92612">
        <ele>633.5</ele>
        <time>2012-08-16T12:58:38Z</time>
      </trkpt>
      <trkpt lat="44.46632" lon="3.92617">
        <ele>633.5</ele>
        <time>2012-08-16T12:58:51Z</time>
      </trkpt>
      <trkpt lat="44.46644" lon="3.92621">
        <ele>633.5</ele>
        <time>2012-08-16T12:59:04Z</time>
      </trkpt>
      <trkpt lat="44.46645" lon="3.92602">
        <ele>633.5</ele>
        <time>2012-08-16T12:59:17Z</time>
      </trkpt>
      <trkpt lat="44.46648" lon="3.92582">
        <ele>636.3</ele>
        <time>2012-08-16T12:59:31Z</time>
      </trkpt>
      <trkpt lat="44.46656" lon="3.92566">
        <ele>642.3</ele>
        <time>2012-08-16T12:59:42Z</time>
      </trkpt>
      <trkpt lat="44.4667" lon="3.92559">
        <ele>648.9</ele>
        <time>2012-08-16T12:59:54Z</time>
      </trkpt>
      <trkpt lat="44.46683" lon="3.92555">
        <ele>651.6</ele>
        <time>2012-08-16T13:00:06Z</time>
      </trkpt>
      <trkpt lat="44.46697" lon="3.92553">
        <ele>651.6</ele>
        <time>2012-08-16T13:00:16Z</time>
      </trkpt>
      <trkpt lat="44.46712" lon="3.92552">
        <ele>644.3</ele>
        <time>2012-08-16T13:00:27Z</time>
      </trkpt>
      <trkpt lat="44.46727" lon="3.92555">
        <ele>640.4</ele>
        <time>2012-08-16T13:00:40Z</time>
      </trkpt>
      <trkpt lat="44.46741" lon="3.9256">
        <ele>640.4</ele>
        <time>2012-08-16T13:00:50Z</time>
      </trkpt>
      <trkpt lat="44.46754" lon="3.92554">
        <ele>640.4</ele>
        <time>2012-08-16T13:01:04Z</time>
      </trkpt>
      <trkpt lat="44.46769" lon="3.92553">
        <ele>643.8</ele>
        <time>2012-08-16T13:01:21Z</time>
      </trkpt>
      <trkpt lat="44.46783" lon="3.92549">
        <ele>651.6</ele>
        <time>2012-08-16T13:01:37Z</time>
      </trkpt>
      <trkpt lat="44.46797" lon="3.9254">
        <ele>651.6</ele>
        <time>2012-08-16T13:01:55Z</time>
      </trkpt>
      <trkpt lat="44.46807" lon="3.92528">
        <ele>651.6</ele>
        <time>2012-08-16T13:02:16Z</time>
      </trkpt>
      <trkpt lat="44.46819" lon="3.92518">
        <ele>653.2</ele>
        <time>2012-08-16T13:02:27Z</time>
      </trkpt>
      <trkpt lat="44.46834" lon="3.92513">
        <ele>656.4</ele>
        <time>2012-08-16T13:02:39Z</time>
      </trkpt>
      <trkpt lat="44.46847" lon="3.92507">
        <ele>659.5</ele>
        <time>2012-08-16T13:02:51Z</time>
      </trkpt>
      <trkpt lat="44.46859" lon="3.92499">
        <ele>662.2</ele>
        <time>2012-08-16T13:03:01Z</time>
      </trkpt>
      <trkpt lat="44.46873" lon="3.92495">
        <ele>653.4</ele>
        <time>2012-08-16T13:03:13Z</time>
      </trkpt>
      <trkpt lat="44.46886" lon="3.92491">
        <ele>651.4</ele>
        <time>2012-08-16T13:03:31Z</time>
      </trkpt>
      <trkpt lat="44.469" lon="3.92483">
        <ele>657.3</ele>
        <time>2012-08-16T13:03:43Z</time>
      </trkpt>
      <trkpt lat="44.46911" lon="3.92471">
        <ele>662.6</ele>
        <time>2012-08-16T13:03:54Z</time>
      </trkpt>
      <trkpt lat="44.46925" lon="3.92468">
        <ele>668</ele>
        <time>2012-08-16T13:04:06Z</time>
      </trkpt>
      <trkpt lat="44.46939" lon="3.9247">
        <ele>668</ele>
        <time>2012-08-16T13:04:19Z</time>
      </trkpt>
      <trkpt lat="44.46953" lon="3.92468">
        <ele>668</ele>
        <time>2012-08-16T13:04:31Z</time>
      </trkpt>
      <trkpt lat="44.46966" lon="3.92466">
        <ele>668</ele>
        <time>2012-08-16T13:04:43Z</time>
      </trkpt>
      <trkpt lat="44.46981" lon="3.92466">
        <ele>668</ele>
        <time>2012-08-16T13:04:54Z</time>
      </trkpt>
      <trkpt lat="44.47003" lon="3.92456">
        <ele>677.9</ele>
        <time>2012-08-16T13:05:16Z</time>
      </trkpt>
      <trkpt lat="44.47003" lon="3.92456">
        <ele>677.9</ele>
        <time>2012-08-16T13:06:29Z</time>
      </trkpt>
      <trkpt lat="44.47011" lon="3.92423">
        <ele>676.4</ele>
        <time>2012-08-16T13:06:33Z</time>
      </trkpt>
      <trkpt lat="44.47011" lon="3.92423">
        <ele>676.4</ele>
        <time>2012-08-16T13:07:21Z</time>
      </trkpt>
      <trkpt lat="44.4701" lon="3.92404">
        <ele>668.7</ele>
        <time>2012-08-16T13:07:25Z</time>
      </trkpt>
      <trkpt lat="44.46999" lon="3.92394">
        <ele>668.3</ele>
        <time>2012-08-16T13:07:49Z</time>
      </trkpt>
      <trkpt lat="44.46985" lon="3.92389">
        <ele>661.7</ele>
        <time>2012-08-16T13:08:03Z</time>
      </trkpt>
      <trkpt lat="44.46971" lon="3.92388">
        <ele>655.6</ele>
        <time>2012-08-16T13:08:17Z</time>
      </trkpt>
      <trkpt lat="44.46957" lon="3.92391">
        <ele>655.6</ele>
        <time>2012-08-16T13:08:30Z</time>
      </trkpt>
      <trkpt lat="44.46943" lon="3.92389">
        <ele>655.6</ele>
        <time>2012-08-16T13:08:38Z</time>
      </trkpt>
      <trkpt lat="44.46928" lon="3.92383">
        <ele>655.6</ele>
        <time>2012-08-16T13:08:48Z</time>
      </trkpt>
      <trkpt lat="44.46914" lon="3.92381">
        <ele>655.6</ele>
        <time>2012-08-16T13:08:59Z</time>
      </trkpt>
      <trkpt lat="44.469" lon="3.92386">
        <ele>651.6</ele>
        <time>2012-08-16T13:09:19Z</time>
      </trkpt>
      <trkpt lat="44.46888" lon="3.92394">
        <ele>646.5</ele>
        <time>2012-08-16T13:09:29Z</time>
      </trkpt>
      <trkpt lat="44.46873" lon="3.92398">
        <ele>644</ele>
        <time>2012-08-16T13:09:39Z</time>
      </trkpt>
      <trkpt lat="44.4686" lon="3.92395">
        <ele>645.5</ele>
        <time>2012-08-16T13:09:47Z</time>
      </trkpt>
      <trkpt lat="44.46847" lon="3.92385">
        <ele>652.3</ele>
        <time>2012-08-16T13:10:01Z</time>
      </trkpt>
      <trkpt lat="44.46834" lon="3.92376">
        <ele>657.7</ele>
        <time>2012-08-16T13:10:16Z</time>
      </trkpt>
      <trkpt lat="44.4682" lon="3.92369">
        <ele>661.1</ele>
        <time>2012-08-16T13:10:31Z</time>
      </trkpt>
      <trkpt lat="44.46806" lon="3.92367">
        <ele>664.5</ele>
        <time>2012-08-16T13:10:40Z</time>
      </trkpt>
      <trkpt lat="44.46792" lon="3.92368">
        <ele>668.4</ele>
        <time>2012-08-16T13:10:50Z</time>
      </trkpt>
      <trkpt lat="44.46778" lon="3.92369">
        <ele>668.4</ele>
        <time>2012-08-16T13:11:00Z</time>
      </trkpt>
      <trkpt lat="44.46765" lon="3.92365">
        <ele>665</ele>
        <time>2012-08-16T13:11:11Z</time>
      </trkpt>
      <trkpt lat="44.46761" lon="3.92347">
        <ele>649.9</ele>
        <time>2012-08-16T13:11:25Z</time>
      </trkpt>
      <trkpt lat="44.46764" lon="3.92328">
        <ele>646.8</ele>
        <time>2012-08-16T13:11:39Z</time>
      </trkpt>
      <trkpt lat="44.46758" lon="3.9231">
        <ele>653.8</ele>
        <time>2012-08-16T13:11:52Z</time>
      </trkpt>
      <trkpt lat="44.46745" lon="3.92309">
        <ele>669</ele>
        <time>2012-08-16T13:12:20Z</time>
      </trkpt>
      <trkpt lat="44.46732" lon="3.92318">
        <ele>662.3</ele>
        <time>2012-08-16T13:12:34Z</time>
      </trkpt>
      <trkpt lat="44.46723" lon="3.92333">
        <ele>656.9</ele>
        <time>2012-08-16T13:12:45Z</time>
      </trkpt>
      <trkpt lat="44.46712" lon="3.92346">
        <ele>642.7</ele>
        <time>2012-08-16T13:12:57Z</time>
      </trkpt>
      <trkpt lat="44.46698" lon="3.92356">
        <ele>626.3</ele>
        <time>2012-08-16T13:13:14Z</time>
      </trkpt>
      <trkpt lat="44.46678" lon="3.92359">
        <ele>618.5</ele>
        <time>2012-08-16T13:13:20Z</time>
      </trkpt>
      <trkpt lat="44.46668" lon="3.92355">
        <ele>610.9</ele>
        <time>2012-08-16T13:13:33Z</time>
      </trkpt>
      <trkpt lat="44.46657" lon="3.92357">
        <ele>618.4</ele>
        <time>2012-08-16T13:13:50Z</time>
      </trkpt>
      <trkpt lat="44.46641" lon="3.92347">
        <ele>618.4</ele>
        <time>2012-08-16T13:14:02Z</time>
      </trkpt>
      <trkpt lat="44.4663" lon="3.92335">
        <ele>618.4</ele>
        <time>2012-08-16T13:14:24Z</time>
      </trkpt>
      <trkpt lat="44.46616" lon="3.92327">
        <ele>618.4</ele>
        <time>2012-08-16T13:14:34Z</time>
      </trkpt>
      <trkpt lat="44.46599" lon="3.92321">
        <ele>618.4</ele>
        <time>2012-08-16T13:15:04Z</time>
      </trkpt>
      <trkpt lat="44.46589" lon="3.92337">
        <ele>622.8</ele>
        <time>2012-08-16T13:15:33Z</time>
      </trkpt>
      <trkpt lat="44.46582" lon="3.92353">
        <ele>626.7</ele>
        <time>2012-08-16T13:15:47Z</time>
      </trkpt>
      <trkpt lat="44.4658" lon="3.92372">
        <ele>628.6</ele>
        <time>2012-08-16T13:16:01Z</time>
      </trkpt>
      <trkpt lat="44.46571" lon="3.92388">
        <ele>628.6</ele>
        <time>2012-08-16T13:16:16Z</time>
      </trkpt>
      <trkpt lat="44.46555" lon="3.92402">
        <ele>621.9</ele>
        <time>2012-08-16T13:16:32Z</time>
      </trkpt>
      <trkpt lat="44.46529" lon="3.92389">
        <ele>614.7</ele>
        <time>2012-08-16T13:16:49Z</time>
      </trkpt>
      <trkpt lat="44.46529" lon="3.92389">
        <ele>614.7</ele>
        <time>2012-08-16T13:17:41Z</time>
      </trkpt>
      <trkpt lat="44.46519" lon="3.92376">
        <ele>614.3</ele>
        <time>2012-08-16T13:17:51Z</time>
      </trkpt>
      <trkpt lat="44.46502" lon="3.92358">
        <ele>624.6</ele>
        <time>2012-08-16T13:18:17Z</time>
      </trkpt>
      <trkpt lat="44.46502" lon="3.92358">
        <ele>624.6</ele>
        <time>2012-08-16T13:19:17Z</time>
      </trkpt>
      <trkpt lat="44.46493" lon="3.92357">
        <ele>628.1</ele>
        <time>2012-08-16T13:19:20Z</time>
      </trkpt>
      <trkpt lat="44.4648" lon="3.92362">
        <ele>629</ele>
        <time>2012-08-16T13:19:36Z</time>
      </trkpt>
      <trkpt lat="44.46463" lon="3.92361">
        <ele>630.2</ele>
        <time>2012-08-16T13:19:58Z</time>
      </trkpt>
      <trkpt lat="44.46447" lon="3.92361">
        <ele>631.8</ele>
        <time>2012-08-16T13:20:25Z</time>
      </trkpt>
      <trkpt lat="44.46433" lon="3.92358">
        <ele>632.5</ele>
        <time>2012-08-16T13:20:37Z</time>
      </trkpt>
      <trkpt lat="44.46425" lon="3.92352">
        <ele>632.8</ele>
        <time>2012-08-16T13:20:43Z</time>
      </trkpt>
      <trkpt lat="44.46407" lon="3.92348">
        <ele>633.6</ele>
        <time>2012-08-16T13:20:57Z</time>
      </trkpt>
      <trkpt lat="44.46394" lon="3.92341">
        <ele>634.3</ele>
        <time>2012-08-16T13:21:09Z</time>
      </trkpt>
      <trkpt lat="44.4638" lon="3.92337">
        <ele>634.8</ele>
        <time>2012-08-16T13:21:18Z</time>
      </trkpt>
      <trkpt lat="44.46364" lon="3.92328">
        <ele>635.7</ele>
        <time>2012-08-16T13:21:33Z</time>
      </trkpt>
      <trkpt lat="44.4635" lon="3.92317">
        <ele>636.7</ele>
        <time>2012-08-16T13:21:51Z</time>
      </trkpt>
      <trkpt lat="44.46337" lon="3.92308">
        <ele>637.4</ele>
        <time>2012-08-16T13:22:04Z</time>
      </trkpt>
      <trkpt lat="44.46336" lon="3.92287">
        <ele>640</ele>
        <time>2012-08-16T13:22:22Z</time>
      </trkpt>
      <trkpt lat="44.46341" lon="3.92268">
        <ele>648.2</ele>
        <time>2012-08-16T13:22:38Z</time>
      </trkpt>
      <trkpt lat="44.46335" lon="3.92251">
        <ele>657</ele>
        <time>2012-08-16T13:22:55Z</time>
      </trkpt>
      <trkpt lat="44.46335" lon="3.92209">
        <ele>638.4</ele>
        <time>2012-08-16T13:23:08Z</time>
      </trkpt>
      <trkpt lat="44.46335" lon="3.92209">
        <ele>638.4</ele>
        <time>2012-08-16T13:25:53Z</time>
      </trkpt>
      <trkpt lat="44.46338" lon="3.92186">
        <ele>614.6</ele>
        <time>2012-08-16T13:25:56Z</time>
      </trkpt>
      <trkpt lat="44.46332" lon="3.92167">
        <ele>624.5</ele>
        <time>2012-08-16T13:26:17Z</time>
      </trkpt>
      <trkpt lat="44.46329" lon="3.92148">
        <ele>634.8</ele>
        <time>2012-08-16T13:26:39Z</time>
      </trkpt>
      <trkpt lat="44.46338" lon="3.92125">
        <ele>637.6</ele>
        <time>2012-08-16T13:27:00Z</time>
      </trkpt>
      <trkpt lat="44.46338" lon="3.92125">
        <ele>637.6</ele>
        <time>2012-08-16T13:29:44Z</time>
      </trkpt>
      <trkpt lat="44.46345" lon="3.92115">
        <ele>636.2</ele>
        <time>2012-08-16T13:29:44Z</time>
      </trkpt>
      <trkpt lat="44.46307" lon="3.92081">
        <ele>636.2</ele>
        <time>2012-08-16T13:30:09Z</time>
      </trkpt>
      <trkpt lat="44.46327" lon="3.9209">
        <ele>646.7</ele>
        <time>2012-08-16T13:30:28Z</time>
      </trkpt>
      <trkpt lat="44.46341" lon="3.92102">
        <ele>647.7</ele>
        <time>2012-08-16T13:30:30Z</time>
      </trkpt>
      <trkpt lat="44.46354" lon="3.92106">
        <ele>651</ele>
        <time>2012-08-16T13:30:36Z</time>
      </trkpt>
      <trkpt lat="44.46376" lon="3.92062">
        <ele>640.5</ele>
        <time>2012-08-16T13:30:55Z</time>
      </trkpt>
      <trkpt lat="44.46376" lon="3.92062">
        <ele>640.5</ele>
        <time>2012-08-16T13:33:21Z</time>
      </trkpt>
      <trkpt lat="44.46387" lon="3.9203">
        <ele>632.7</ele>
        <time>2012-08-16T13:33:31Z</time>
      </trkpt>
      <trkpt lat="44.46383" lon="3.92012">
        <ele>631.3</ele>
        <time>2012-08-16T13:33:41Z</time>
      </trkpt>
      <trkpt lat="44.46384" lon="3.91993">
        <ele>628.7</ele>
        <time>2012-08-16T13:33:59Z</time>
      </trkpt>
      <trkpt lat="44.46372" lon="3.91978">
        <ele>621.6</ele>
        <time>2012-08-16T13:34:22Z</time>
      </trkpt>
      <trkpt lat="44.46372" lon="3.91978">
        <ele>621.6</ele>
        <time>2012-08-16T13:35:38Z</time>
      </trkpt>
      <trkpt lat="44.46352" lon="3.91971">
        <ele>623.3</ele>
        <time>2012-08-16T13:35:51Z</time>
      </trkpt>
      <trkpt lat="44.46352" lon="3.91971">
        <ele>623.3</ele>
        <time>2012-08-16T13:36:56Z</time>
      </trkpt>
      <trkpt lat="44.46344" lon="3.91976">
        <ele>631.9</ele>
        <time>2012-08-16T13:37:05Z</time>
      </trkpt>
      <trkpt lat="44.46333" lon="3.91989">
        <ele>631.9</ele>
        <time>2012-08-16T13:37:16Z</time>
      </trkpt>
      <trkpt lat="44.46321" lon="3.91998">
        <ele>631.9</ele>
        <time>2012-08-16T13:37:24Z</time>
      </trkpt>
      <trkpt lat="44.46308" lon="3.92005">
        <ele>631.9</ele>
        <time>2012-08-16T13:37:33Z</time>
      </trkpt>
      <trkpt lat="44.46296" lon="3.92015">
        <ele>630.9</ele>
        <time>2012-08-16T13:37:42Z</time>
      </trkpt>
      <trkpt lat="44.46284" lon="3.92023">
        <ele>627.2</ele>
        <time>2012-08-16T13:38:04Z</time>
      </trkpt>
      <trkpt lat="44.4627" lon="3.92024">
        <ele>626.2</ele>
        <time>2012-08-16T13:38:10Z</time>
      </trkpt>
      <trkpt lat="44.4626" lon="3.92034">
        <ele>624.5</ele>
        <time>2012-08-16T13:38:20Z</time>
      </trkpt>
      <trkpt lat="44.46253" lon="3.9205">
        <ele>622.7</ele>
        <time>2012-08-16T13:38:31Z</time>
      </trkpt>
      <trkpt lat="44.46249" lon="3.92057">
        <ele>622</ele>
        <time>2012-08-16T13:38:35Z</time>
      </trkpt>
      <trkpt lat="44.4625" lon="3.92077">
        <ele>608.2</ele>
        <time>2012-08-16T13:38:52Z</time>
      </trkpt>
      <trkpt lat="44.46243" lon="3.92094">
        <ele>609.7</ele>
        <time>2012-08-16T13:39:01Z</time>
      </trkpt>
      <trkpt lat="44.46229" lon="3.92108">
        <ele>619.1</ele>
        <time>2012-08-16T13:39:20Z</time>
      </trkpt>
      <trkpt lat="44.46195" lon="3.92126">
        <ele>608.2</ele>
        <time>2012-08-16T13:39:43Z</time>
      </trkpt>
      <trkpt lat="44.46195" lon="3.92126">
        <ele>608.2</ele>
        <time>2012-08-16T13:40:53Z</time>
      </trkpt>
      <trkpt lat="44.46172" lon="3.92136">
        <ele>612</ele>
        <time>2012-08-16T13:41:05Z</time>
      </trkpt>
      <trkpt lat="44.46168" lon="3.92138">
        <ele>612</ele>
        <time>2012-08-16T13:41:09Z</time>
      </trkpt>
      <trkpt lat="44.4617" lon="3.92145">
        <ele>612</ele>
        <time>2012-08-16T13:41:13Z</time>
      </trkpt>
      <trkpt lat="44.46162" lon="3.92163">
        <ele>612</ele>
        <time>2012-08-16T13:41:24Z</time>
      </trkpt>
      <trkpt lat="44.46128" lon="3.92227">
        <ele>623.8</ele>
        <time>2012-08-16T13:41:57Z</time>
      </trkpt>
      <trkpt lat="44.46128" lon="3.92227">
        <ele>623.8</ele>
        <time>2012-08-16T13:43:25Z</time>
      </trkpt>
      <trkpt lat="44.46102" lon="3.92277">
        <ele>635.5</ele>
        <time>2012-08-16T13:43:27Z</time>
      </trkpt>
      <trkpt lat="44.46091" lon="3.92403">
        <ele>635.9</ele>
        <time>2012-08-16T13:43:38Z</time>
      </trkpt>
      <trkpt lat="44.46049" lon="3.92348">
        <ele>637.9</ele>
        <time>2012-08-16T13:43:52Z</time>
      </trkpt>
      <trkpt lat="44.46012" lon="3.92361">
        <ele>641.6</ele>
        <time>2012-08-16T13:44:24Z</time>
      </trkpt>
      <trkpt lat="44.46012" lon="3.92361">
        <ele>641.6</ele>
        <time>2012-08-16T13:45:05Z</time>
      </trkpt>
      <trkpt lat="44.45989" lon="3.92373">
        <ele>639.8</ele>
        <time>2012-08-16T13:45:22Z</time>
      </trkpt>
      <trkpt lat="44.45984" lon="3.92354">
        <ele>633.8</ele>
        <time>2012-08-16T13:45:37Z</time>
      </trkpt>
      <trkpt lat="44.45975" lon="3.92339">
        <ele>624.8</ele>
        <time>2012-08-16T13:45:46Z</time>
      </trkpt>
      <trkpt lat="44.45968" lon="3.92321">
        <ele>624.8</ele>
        <time>2012-08-16T13:46:03Z</time>
      </trkpt>
      <trkpt lat="44.45962" lon="3.92303">
        <ele>624.8</ele>
        <time>2012-08-16T13:46:19Z</time>
      </trkpt>
      <trkpt lat="44.45965" lon="3.92285">
        <ele>628.5</ele>
        <time>2012-08-16T13:46:32Z</time>
      </trkpt>
      <trkpt lat="44.45972" lon="3.92268">
        <ele>631.6</ele>
        <time>2012-08-16T13:46:42Z</time>
      </trkpt>
      <trkpt lat="44.45973" lon="3.92248">
        <ele>635</ele>
        <time>2012-08-16T13:46:53Z</time>
      </trkpt>
      <trkpt lat="44.4597" lon="3.92227">
        <ele>635</ele>
        <time>2012-08-16T13:47:15Z</time>
      </trkpt>
      <trkpt lat="44.45956" lon="3.92222">
        <ele>635</ele>
        <time>2012-08-16T13:47:26Z</time>
      </trkpt>
      <trkpt lat="44.4595" lon="3.92204">
        <ele>633.8</ele>
        <time>2012-08-16T13:47:33Z</time>
      </trkpt>
      <trkpt lat="44.45942" lon="3.92186">
        <ele>617</ele>
        <time>2012-08-16T13:47:54Z</time>
      </trkpt>
      <trkpt lat="44.45932" lon="3.92172">
        <ele>611.5</ele>
        <time>2012-08-16T13:48:08Z</time>
      </trkpt>
      <trkpt lat="44.45922" lon="3.92159">
        <ele>609.6</ele>
        <time>2012-08-16T13:48:24Z</time>
      </trkpt>
      <trkpt lat="44.45911" lon="3.92148">
        <ele>609.6</ele>
        <time>2012-08-16T13:48:35Z</time>
      </trkpt>
      <trkpt lat="44.45895" lon="3.92137">
        <ele>616.8</ele>
        <time>2012-08-16T13:49:01Z</time>
      </trkpt>
      <trkpt lat="44.45895" lon="3.92137">
        <ele>616.8</ele>
        <time>2012-08-16T13:49:56Z</time>
      </trkpt>
      <trkpt lat="44.45888" lon="3.92141">
        <ele>623.3</ele>
        <time>2012-08-16T13:50:02Z</time>
      </trkpt>
      <trkpt lat="44.4588" lon="3.92162">
        <ele>631.4</ele>
        <time>2012-08-16T13:50:22Z</time>
      </trkpt>
      <trkpt lat="44.45875" lon="3.92184">
        <ele>640</ele>
        <time>2012-08-16T13:50:40Z</time>
      </trkpt>
      <trkpt lat="44.4587" lon="3.92202">
        <ele>642</ele>
        <time>2012-08-16T13:50:58Z</time>
      </trkpt>
      <trkpt lat="44.45871" lon="3.92214">
        <ele>637.6</ele>
        <time>2012-08-16T13:51:03Z</time>
      </trkpt>
      <trkpt lat="44.45869" lon="3.92237">
        <ele>636.4</ele>
        <time>2012-08-16T13:51:17Z</time>
      </trkpt>
      <trkpt lat="44.45861" lon="3.92254">
        <ele>643.9</ele>
        <time>2012-08-16T13:51:42Z</time>
      </trkpt>
      <trkpt lat="44.45855" lon="3.92272">
        <ele>643.9</ele>
        <time>2012-08-16T13:51:57Z</time>
      </trkpt>
      <trkpt lat="44.45852" lon="3.92293">
        <ele>643.9</ele>
        <time>2012-08-16T13:52:05Z</time>
      </trkpt>
      <trkpt lat="44.45846" lon="3.92311">
        <ele>643.9</ele>
        <time>2012-08-16T13:52:25Z</time>
      </trkpt>
      <trkpt lat="44.45837" lon="3.92329">
        <ele>634.6</ele>
        <time>2012-08-16T13:52:36Z</time>
      </trkpt>
      <trkpt lat="44.45837" lon="3.92336">
        <ele>632.2</ele>
        <time>2012-08-16T13:52:48Z</time>
      </trkpt>
      <trkpt lat="44.45822" lon="3.92354">
        <ele>618.4</ele>
        <time>2012-08-16T13:53:14Z</time>
      </trkpt>
      <trkpt lat="44.45822" lon="3.92354">
        <ele>618.4</ele>
        <time>2012-08-16T13:53:56Z</time>
      </trkpt>
      <trkpt lat="44.4581" lon="3.9236">
        <ele>614.5</ele>
        <time>2012-08-16T13:53:58Z</time>
      </trkpt>
      <trkpt lat="44.45801" lon="3.92344">
        <ele>614.5</ele>
        <time>2012-08-16T13:54:12Z</time>
      </trkpt>
      <trkpt lat="44.45794" lon="3.92328">
        <ele>614.5</ele>
        <time>2012-08-16T13:54:24Z</time>
      </trkpt>
      <trkpt lat="44.4578" lon="3.92319">
        <ele>614.5</ele>
        <time>2012-08-16T13:54:43Z</time>
      </trkpt>
      <trkpt lat="44.45751" lon="3.92308">
        <ele>614.6</ele>
        <time>2012-08-16T13:55:22Z</time>
      </trkpt>
      <trkpt lat="44.45751" lon="3.92308">
        <ele>614.6</ele>
        <time>2012-08-16T13:56:09Z</time>
      </trkpt>
      <trkpt lat="44.45735" lon="3.92304">
        <ele>614.2</ele>
        <time>2012-08-16T13:56:11Z</time>
      </trkpt>
      <trkpt lat="44.45727" lon="3.92304">
        <ele>614.2</ele>
        <time>2012-08-16T13:56:25Z</time>
      </trkpt>
      <trkpt lat="44.45726" lon="3.92324">
        <ele>614.2</ele>
        <time>2012-08-16T13:56:41Z</time>
      </trkpt>
      <trkpt lat="44.45722" lon="3.92345">
        <ele>618.3</ele>
        <time>2012-08-16T13:56:55Z</time>
      </trkpt>
      <trkpt lat="44.45721" lon="3.92364">
        <ele>624.3</ele>
        <time>2012-08-16T13:57:08Z</time>
      </trkpt>
      <trkpt lat="44.45717" lon="3.92382">
        <ele>628.6</ele>
        <time>2012-08-16T13:57:19Z</time>
      </trkpt>
      <trkpt lat="44.45706" lon="3.92395">
        <ele>633.4</ele>
        <time>2012-08-16T13:57:35Z</time>
      </trkpt>
      <trkpt lat="44.45694" lon="3.92408">
        <ele>639.9</ele>
        <time>2012-08-16T13:57:57Z</time>
      </trkpt>
      <trkpt lat="44.45681" lon="3.92415">
        <ele>641.4</ele>
        <time>2012-08-16T13:58:12Z</time>
      </trkpt>
      <trkpt lat="44.45667" lon="3.92421">
        <ele>641.4</ele>
        <time>2012-08-16T13:58:19Z</time>
      </trkpt>
      <trkpt lat="44.45655" lon="3.92431">
        <ele>633.2</ele>
        <time>2012-08-16T13:58:27Z</time>
      </trkpt>
      <trkpt lat="44.45643" lon="3.92443">
        <ele>621.6</ele>
        <time>2012-08-16T13:58:37Z</time>
      </trkpt>
      <trkpt lat="44.45632" lon="3.92455">
        <ele>633</ele>
        <time>2012-08-16T13:58:50Z</time>
      </trkpt>
      <trkpt lat="44.4562" lon="3.92462">
        <ele>621.9</ele>
        <time>2012-08-16T13:59:05Z</time>
      </trkpt>
      <trkpt lat="44.45607" lon="3.92469">
        <ele>624.9</ele>
        <time>2012-08-16T13:59:13Z</time>
      </trkpt>
      <trkpt lat="44.45594" lon="3.92475">
        <ele>628.2</ele>
        <time>2012-08-16T13:59:22Z</time>
      </trkpt>
      <trkpt lat="44.45581" lon="3.92482">
        <ele>632</ele>
        <time>2012-08-16T13:59:32Z</time>
      </trkpt>
      <trkpt lat="44.45568" lon="3.92489">
        <ele>632.7</ele>
        <time>2012-08-16T13:59:41Z</time>
      </trkpt>
      <trkpt lat="44.45553" lon="3.9249">
        <ele>632.7</ele>
        <time>2012-08-16T13:59:52Z</time>
      </trkpt>
      <trkpt lat="44.4554" lon="3.92492">
        <ele>632.7</ele>
        <time>2012-08-16T14:00:20Z</time>
      </trkpt>
      <trkpt lat="44.45527" lon="3.92499">
        <ele>632.7</ele>
        <time>2012-08-16T14:00:38Z</time>
      </trkpt>
      <trkpt lat="44.45515" lon="3.92507">
        <ele>632.7</ele>
        <time>2012-08-16T14:00:42Z</time>
      </trkpt>
      <trkpt lat="44.45503" lon="3.92517">
        <ele>624.4</ele>
        <time>2012-08-16T14:00:54Z</time>
      </trkpt>
      <trkpt lat="44.4549" lon="3.92525">
        <ele>620.2</ele>
        <time>2012-08-16T14:01:09Z</time>
      </trkpt>
      <trkpt lat="44.45477" lon="3.9253">
        <ele>620.2</ele>
        <time>2012-08-16T14:01:32Z</time>
      </trkpt>
      <trkpt lat="44.45464" lon="3.92538">
        <ele>620.2</ele>
        <time>2012-08-16T14:01:41Z</time>
      </trkpt>
      <trkpt lat="44.45429" lon="3.92548">
        <ele>620.2</ele>
        <time>2012-08-16T14:02:05Z</time>
      </trkpt>
      <trkpt lat="44.45429" lon="3.92548">
        <ele>620.2</ele>
        <time>2012-08-16T14:02:55Z</time>
      </trkpt>
      <trkpt lat="44.45408" lon="3.92551">
        <ele>620.2</ele>
        <time>2012-08-16T14:03:06Z</time>
      </trkpt>
      <trkpt lat="44.45394" lon="3.92547">
        <ele>620.2</ele>
        <time>2012-08-16T14:03:15Z</time>
      </trkpt>
      <trkpt lat="44.45382" lon="3.92537">
        <ele>620.2</ele>
        <time>2012-08-16T14:03:33Z</time>
      </trkpt>
      <trkpt lat="44.45374" lon="3.92522">
        <ele>620.2</ele>
        <time>2012-08-16T14:03:46Z</time>
      </trkpt>
      <trkpt lat="44.45365" lon="3.92507">
        <ele>622.9</ele>
        <time>2012-08-16T14:04:00Z</time>
      </trkpt>
      <trkpt lat="44.45353" lon="3.92497">
        <ele>628.3</ele>
        <time>2012-08-16T14:04:12Z</time>
      </trkpt>
      <trkpt lat="44.45342" lon="3.92485">
        <ele>632.4</ele>
        <time>2012-08-16T14:04:26Z</time>
      </trkpt>
      <trkpt lat="44.4533" lon="3.92474">
        <ele>632.4</ele>
        <time>2012-08-16T14:04:38Z</time>
      </trkpt>
      <trkpt lat="44.45322" lon="3.92459">
        <ele>632.4</ele>
        <time>2012-08-16T14:04:50Z</time>
      </trkpt>
      <trkpt lat="44.45317" lon="3.9244">
        <ele>632.4</ele>
        <time>2012-08-16T14:05:03Z</time>
      </trkpt>
      <trkpt lat="44.45309" lon="3.92424">
        <ele>632.4</ele>
        <time>2012-08-16T14:05:17Z</time>
      </trkpt>
      <trkpt lat="44.45302" lon="3.92407">
        <ele>632.4</ele>
        <time>2012-08-16T14:05:29Z</time>
      </trkpt>
      <trkpt lat="44.45292" lon="3.92392">
        <ele>632.4</ele>
        <time>2012-08-16T14:05:51Z</time>
      </trkpt>
      <trkpt lat="44.45288" lon="3.92373">
        <ele>632.4</ele>
        <time>2012-08-16T14:06:04Z</time>
      </trkpt>
      <trkpt lat="44.45282" lon="3.92352">
        <ele>632.4</ele>
        <time>2012-08-16T14:06:15Z</time>
      </trkpt>
      <trkpt lat="44.45274" lon="3.92337">
        <ele>628.1</ele>
        <time>2012-08-16T14:06:25Z</time>
      </trkpt>
      <trkpt lat="44.45263" lon="3.92319">
        <ele>622</ele>
        <time>2012-08-16T14:06:37Z</time>
      </trkpt>
      <trkpt lat="44.45256" lon="3.92301">
        <ele>622</ele>
        <time>2012-08-16T14:06:49Z</time>
      </trkpt>
      <trkpt lat="44.45247" lon="3.92287">
        <ele>622</ele>
        <time>2012-08-16T14:07:15Z</time>
      </trkpt>
      <trkpt lat="44.45241" lon="3.92268">
        <ele>622</ele>
        <time>2012-08-16T14:07:40Z</time>
      </trkpt>
      <trkpt lat="44.45233" lon="3.92253">
        <ele>622</ele>
        <time>2012-08-16T14:07:53Z</time>
      </trkpt>
      <trkpt lat="44.4523" lon="3.92234">
        <ele>627.1</ele>
        <time>2012-08-16T14:08:03Z</time>
      </trkpt>
      <trkpt lat="44.45221" lon="3.9222">
        <ele>633.3</ele>
        <time>2012-08-16T14:08:31Z</time>
      </trkpt>
      <trkpt lat="44.4522" lon="3.92201">
        <ele>629</ele>
        <time>2012-08-16T14:08:45Z</time>
      </trkpt>
      <trkpt lat="44.45224" lon="3.92183">
        <ele>633.9</ele>
        <time>2012-08-16T14:09:15Z</time>
      </trkpt>
      <trkpt lat="44.45228" lon="3.92179">
        <ele>637.1</ele>
        <time>2012-08-16T14:09:24Z</time>
      </trkpt>
      <trkpt lat="44.45216" lon="3.92168">
        <ele>637.1</ele>
        <time>2012-08-16T14:09:40Z</time>
      </trkpt>
      <trkpt lat="44.45205" lon="3.92156">
        <ele>637.1</ele>
        <time>2012-08-16T14:09:51Z</time>
      </trkpt>
      <trkpt lat="44.45193" lon="3.92146">
        <ele>637.1</ele>
        <time>2012-08-16T14:10:02Z</time>
      </trkpt>
      <trkpt lat="44.45182" lon="3.92132">
        <ele>637.1</ele>
        <time>2012-08-16T14:10:15Z</time>
      </trkpt>
      <trkpt lat="44.45169" lon="3.92123">
        <ele>637.1</ele>
        <time>2012-08-16T14:10:26Z</time>
      </trkpt>
      <trkpt lat="44.45156" lon="3.92118">
        <ele>632.5</ele>
        <time>2012-08-16T14:10:37Z</time>
      </trkpt>
      <trkpt lat="44.45145" lon="3.92105">
        <ele>625.8</ele>
        <time>2012-08-16T14:10:50Z</time>
      </trkpt>
      <trkpt lat="44.45133" lon="3.92095">
        <ele>625.8</ele>
        <time>2012-08-16T14:11:03Z</time>
      </trkpt>
      <trkpt lat="44.45119" lon="3.9209">
        <ele>625.8</ele>
        <time>2012-08-16T14:11:14Z</time>
      </trkpt>
      <trkpt lat="44.45104" lon="3.92088">
        <ele>625.8</ele>
        <time>2012-08-16T14:11:25Z</time>
      </trkpt>
      <trkpt lat="44.4509" lon="3.92084">
        <ele>625.8</ele>
        <time>2012-08-16T14:11:35Z</time>
      </trkpt>
      <trkpt lat="44.45076" lon="3.9208">
        <ele>625.8</ele>
        <time>2012-08-16T14:11:46Z</time>
      </trkpt>
      <trkpt lat="44.45062" lon="3.92078">
        <ele>625.8</ele>
        <time>2012-08-16T14:11:57Z</time>
      </trkpt>
      <trkpt lat="44.45049" lon="3.92073">
        <ele>625.8</ele>
        <time>2012-08-16T14:12:08Z</time>
      </trkpt>
      <trkpt lat="44.45035" lon="3.92067">
        <ele>625.8</ele>
        <time>2012-08-16T14:12:20Z</time>
      </trkpt>
      <trkpt lat="44.4502" lon="3.92068">
        <ele>625.8</ele>
        <time>2012-08-16T14:12:50Z</time>
      </trkpt>
      <trkpt lat="44.45006" lon="3.92069">
        <ele>625.8</ele>
        <time>2012-08-16T14:12:59Z</time>
      </trkpt>
      <trkpt lat="44.44996" lon="3.92075">
        <ele>625.8</ele>
        <time>2012-08-16T14:13:15Z</time>
      </trkpt>
      <trkpt lat="44.45" lon="3.92094">
        <ele>625.8</ele>
        <time>2012-08-16T14:13:31Z</time>
      </trkpt>
      <trkpt lat="44.45002" lon="3.92114">
        <ele>625.8</ele>
        <time>2012-08-16T14:13:37Z</time>
      </trkpt>
      <trkpt lat="44.45" lon="3.92132">
        <ele>619.7</ele>
        <time>2012-08-16T14:13:49Z</time>
      </trkpt>
      <trkpt lat="44.45001" lon="3.92151">
        <ele>612</ele>
        <time>2012-08-16T14:13:59Z</time>
      </trkpt>
      <trkpt lat="44.45004" lon="3.9217">
        <ele>612</ele>
        <time>2012-08-16T14:14:19Z</time>
      </trkpt>
      <trkpt lat="44.45007" lon="3.92189">
        <ele>616.7</ele>
        <time>2012-08-16T14:14:36Z</time>
      </trkpt>
      <trkpt lat="44.4501" lon="3.92207">
        <ele>623.9</ele>
        <time>2012-08-16T14:14:50Z</time>
      </trkpt>
      <trkpt lat="44.45013" lon="3.92226">
        <ele>623.9</ele>
        <time>2012-08-16T14:15:04Z</time>
      </trkpt>
      <trkpt lat="44.45014" lon="3.92246">
        <ele>623.9</ele>
        <time>2012-08-16T14:15:17Z</time>
      </trkpt>
      <trkpt lat="44.45015" lon="3.92268">
        <ele>613.7</ele>
        <time>2012-08-16T14:15:42Z</time>
      </trkpt>
      <trkpt lat="44.45018" lon="3.92287">
        <ele>611.4</ele>
        <time>2012-08-16T14:16:13Z</time>
      </trkpt>
      <trkpt lat="44.4502" lon="3.92306">
        <ele>611.4</ele>
        <time>2012-08-16T14:16:26Z</time>
      </trkpt>
      <trkpt lat="44.45021" lon="3.92327">
        <ele>615.4</ele>
        <time>2012-08-16T14:16:47Z</time>
      </trkpt>
      <trkpt lat="44.45023" lon="3.92347">
        <ele>621.8</ele>
        <time>2012-08-16T14:17:00Z</time>
      </trkpt>
      <trkpt lat="44.45023" lon="3.92366">
        <ele>623.3</ele>
        <time>2012-08-16T14:17:14Z</time>
      </trkpt>
      <trkpt lat="44.45026" lon="3.92385">
        <ele>623.3</ele>
        <time>2012-08-16T14:17:24Z</time>
      </trkpt>
      <trkpt lat="44.45025" lon="3.92406">
        <ele>623.3</ele>
        <time>2012-08-16T14:17:37Z</time>
      </trkpt>
      <trkpt lat="44.45027" lon="3.92425">
        <ele>623.3</ele>
        <time>2012-08-16T14:17:51Z</time>
      </trkpt>
      <trkpt lat="44.45032" lon="3.92443">
        <ele>623.3</ele>
        <time>2012-08-16T14:18:03Z</time>
      </trkpt>
      <trkpt lat="44.45033" lon="3.92462">
        <ele>623.3</ele>
        <time>2012-08-16T14:18:17Z</time>
      </trkpt>
      <trkpt lat="44.45032" lon="3.92483">
        <ele>623.3</ele>
        <time>2012-08-16T14:18:33Z</time>
      </trkpt>
      <trkpt lat="44.4503" lon="3.92502">
        <ele>623.3</ele>
        <time>2012-08-16T14:18:41Z</time>
      </trkpt>
      <trkpt lat="44.45025" lon="3.9252">
        <ele>623.3</ele>
        <time>2012-08-16T14:18:52Z</time>
      </trkpt>
      <trkpt lat="44.4502" lon="3.92538">
        <ele>623.3</ele>
        <time>2012-08-16T14:19:04Z</time>
      </trkpt>
      <trkpt lat="44.45017" lon="3.92557">
        <ele>623.3</ele>
        <time>2012-08-16T14:19:14Z</time>
      </trkpt>
      <trkpt lat="44.45012" lon="3.92574">
        <ele>623.3</ele>
        <time>2012-08-16T14:19:25Z</time>
      </trkpt>
      <trkpt lat="44.45007" lon="3.92592">
        <ele>623.3</ele>
        <time>2012-08-16T14:19:35Z</time>
      </trkpt>
      <trkpt lat="44.44999" lon="3.9261">
        <ele>623.3</ele>
        <time>2012-08-16T14:19:47Z</time>
      </trkpt>
      <trkpt lat="44.44994" lon="3.92629">
        <ele>623.3</ele>
        <time>2012-08-16T14:20:00Z</time>
      </trkpt>
      <trkpt lat="44.44991" lon="3.92649">
        <ele>623.3</ele>
        <time>2012-08-16T14:20:11Z</time>
      </trkpt>
      <trkpt lat="44.44987" lon="3.92667">
        <ele>621.8</ele>
        <time>2012-08-16T14:20:20Z</time>
      </trkpt>
      <trkpt lat="44.4498" lon="3.92685">
        <ele>618</ele>
        <time>2012-08-16T14:20:30Z</time>
      </trkpt>
      <trkpt lat="44.44972" lon="3.92701">
        <ele>613.4</ele>
        <time>2012-08-16T14:20:42Z</time>
      </trkpt>
      <trkpt lat="44.44967" lon="3.9272">
        <ele>612.3</ele>
        <time>2012-08-16T14:20:52Z</time>
      </trkpt>
      <trkpt lat="44.44959" lon="3.92736">
        <ele>617.1</ele>
        <time>2012-08-16T14:21:02Z</time>
      </trkpt>
      <trkpt lat="44.4495" lon="3.92751">
        <ele>621.5</ele>
        <time>2012-08-16T14:21:13Z</time>
      </trkpt>
      <trkpt lat="44.44941" lon="3.92766">
        <ele>621.5</ele>
        <time>2012-08-16T14:21:30Z</time>
      </trkpt>
      <trkpt lat="44.44931" lon="3.92782">
        <ele>621.5</ele>
        <time>2012-08-16T14:21:49Z</time>
      </trkpt>
      <trkpt lat="44.44923" lon="3.92798">
        <ele>621.5</ele>
        <time>2012-08-16T14:22:00Z</time>
      </trkpt>
      <trkpt lat="44.44915" lon="3.92813">
        <ele>621.5</ele>
        <time>2012-08-16T14:22:09Z</time>
      </trkpt>
      <trkpt lat="44.44916" lon="3.92834">
        <ele>621.5</ele>
        <time>2012-08-16T14:22:26Z</time>
      </trkpt>
      <trkpt lat="44.44913" lon="3.92853">
        <ele>620.1</ele>
        <time>2012-08-16T14:22:35Z</time>
      </trkpt>
      <trkpt lat="44.44907" lon="3.92871">
        <ele>616.9</ele>
        <time>2012-08-16T14:22:46Z</time>
      </trkpt>
      <trkpt lat="44.44901" lon="3.92879">
        <ele>614.8</ele>
        <time>2012-08-16T14:22:53Z</time>
      </trkpt>
      <trkpt lat="44.44898" lon="3.92899">
        <ele>610.7</ele>
        <time>2012-08-16T14:23:07Z</time>
      </trkpt>
      <trkpt lat="44.44892" lon="3.92917">
        <ele>610.2</ele>
        <time>2012-08-16T14:23:28Z</time>
      </trkpt>
      <trkpt lat="44.44897" lon="3.92939">
        <ele>618.2</ele>
        <time>2012-08-16T14:23:46Z</time>
      </trkpt>
      <trkpt lat="44.449" lon="3.92958">
        <ele>622.3</ele>
        <time>2012-08-16T14:23:55Z</time>
      </trkpt>
      <trkpt lat="44.44902" lon="3.92978">
        <ele>624.1</ele>
        <time>2012-08-16T14:24:06Z</time>
      </trkpt>
      <trkpt lat="44.44903" lon="3.92997">
        <ele>624.1</ele>
        <time>2012-08-16T14:24:16Z</time>
      </trkpt>
      <trkpt lat="44.44902" lon="3.93016">
        <ele>624.1</ele>
        <time>2012-08-16T14:24:26Z</time>
      </trkpt>
      <trkpt lat="44.44909" lon="3.93033">
        <ele>624.1</ele>
        <time>2012-08-16T14:24:37Z</time>
      </trkpt>
      <trkpt lat="44.4492" lon="3.93046">
        <ele>624.1</ele>
        <time>2012-08-16T14:24:49Z</time>
      </trkpt>
      <trkpt lat="44.44933" lon="3.93054">
        <ele>624.1</ele>
        <time>2012-08-16T14:25:02Z</time>
      </trkpt>
      <trkpt lat="44.44946" lon="3.9306">
        <ele>624.1</ele>
        <time>2012-08-16T14:25:14Z</time>
      </trkpt>
      <trkpt lat="44.4496" lon="3.93071">
        <ele>624.1</ele>
        <time>2012-08-16T14:25:28Z</time>
      </trkpt>
      <trkpt lat="44.44972" lon="3.9308">
        <ele>624.1</ele>
        <time>2012-08-16T14:25:38Z</time>
      </trkpt>
      <trkpt lat="44.44983" lon="3.9309">
        <ele>624.1</ele>
        <time>2012-08-16T14:25:49Z</time>
      </trkpt>
      <trkpt lat="44.44996" lon="3.93098">
        <ele>624.1</ele>
        <time>2012-08-16T14:26:02Z</time>
      </trkpt>
      <trkpt lat="44.4501" lon="3.93106">
        <ele>624.1</ele>
        <time>2012-08-16T14:26:14Z</time>
      </trkpt>
      <trkpt lat="44.45022" lon="3.93115">
        <ele>624.1</ele>
        <time>2012-08-16T14:26:23Z</time>
      </trkpt>
      <trkpt lat="44.45034" lon="3.93124">
        <ele>624.1</ele>
        <time>2012-08-16T14:26:37Z</time>
      </trkpt>
      <trkpt lat="44.45047" lon="3.93133">
        <ele>624.1</ele>
        <time>2012-08-16T14:26:48Z</time>
      </trkpt>
      <trkpt lat="44.45059" lon="3.93144">
        <ele>624.1</ele>
        <time>2012-08-16T14:27:02Z</time>
      </trkpt>
      <trkpt lat="44.45071" lon="3.93155">
        <ele>624.1</ele>
        <time>2012-08-16T14:27:14Z</time>
      </trkpt>
      <trkpt lat="44.45083" lon="3.93165">
        <ele>624.1</ele>
        <time>2012-08-16T14:27:26Z</time>
      </trkpt>
      <trkpt lat="44.45097" lon="3.93173">
        <ele>624.1</ele>
        <time>2012-08-16T14:27:36Z</time>
      </trkpt>
      <trkpt lat="44.45106" lon="3.93181">
        <ele>624.1</ele>
        <time>2012-08-16T14:27:47Z</time>
      </trkpt>
      <trkpt lat="44.45116" lon="3.93194">
        <ele>624.1</ele>
        <time>2012-08-16T14:28:14Z</time>
      </trkpt>
      <trkpt lat="44.45129" lon="3.93203">
        <ele>624.1</ele>
        <time>2012-08-16T14:28:29Z</time>
      </trkpt>
      <trkpt lat="44.45143" lon="3.93206">
        <ele>624.1</ele>
        <time>2012-08-16T14:28:43Z</time>
      </trkpt>
      <trkpt lat="44.45157" lon="3.93204">
        <ele>624.1</ele>
        <time>2012-08-16T14:28:51Z</time>
      </trkpt>
      <trkpt lat="44.45171" lon="3.93201">
        <ele>624.1</ele>
        <time>2012-08-16T14:29:06Z</time>
      </trkpt>
      <trkpt lat="44.45187" lon="3.93193">
        <ele>624.1</ele>
        <time>2012-08-16T14:29:17Z</time>
      </trkpt>
      <trkpt lat="44.452" lon="3.93188">
        <ele>627.8</ele>
        <time>2012-08-16T14:29:29Z</time>
      </trkpt>
      <trkpt lat="44.45212" lon="3.9318">
        <ele>632.4</ele>
        <time>2012-08-16T14:29:40Z</time>
      </trkpt>
      <trkpt lat="44.45227" lon="3.93175">
        <ele>627.3</ele>
        <time>2012-08-16T14:29:59Z</time>
      </trkpt>
      <trkpt lat="44.45241" lon="3.93169">
        <ele>627.3</ele>
        <time>2012-08-16T14:30:08Z</time>
      </trkpt>
      <trkpt lat="44.45271" lon="3.93159">
        <ele>622.5</ele>
        <time>2012-08-16T14:30:21Z</time>
      </trkpt>
      <trkpt lat="44.45271" lon="3.93159">
        <ele>622.5</ele>
        <time>2012-08-16T14:31:49Z</time>
      </trkpt>
      <trkpt lat="44.45287" lon="3.93156">
        <ele>617.6</ele>
        <time>2012-08-16T14:31:58Z</time>
      </trkpt>
      <trkpt lat="44.45301" lon="3.93155">
        <ele>616.8</ele>
        <time>2012-08-16T14:32:10Z</time>
      </trkpt>
      <trkpt lat="44.45315" lon="3.93156">
        <ele>622.5</ele>
        <time>2012-08-16T14:32:21Z</time>
      </trkpt>
      <trkpt lat="44.4533" lon="3.93161">
        <ele>625.1</ele>
        <time>2012-08-16T14:32:38Z</time>
      </trkpt>
      <trkpt lat="44.45344" lon="3.93164">
        <ele>625.1</ele>
        <time>2012-08-16T14:32:49Z</time>
      </trkpt>
      <trkpt lat="44.45366" lon="3.93172">
        <ele>624.6</ele>
        <time>2012-08-16T14:33:03Z</time>
      </trkpt>
      <trkpt lat="44.45366" lon="3.93172">
        <ele>624.6</ele>
        <time>2012-08-16T14:35:20Z</time>
      </trkpt>
      <trkpt lat="44.45374" lon="3.9317">
        <ele>624.1</ele>
        <time>2012-08-16T14:35:23Z</time>
      </trkpt>
      <trkpt lat="44.45388" lon="3.93161">
        <ele>624.1</ele>
        <time>2012-08-16T14:35:36Z</time>
      </trkpt>
      <trkpt lat="44.45402" lon="3.9316">
        <ele>624.1</ele>
        <time>2012-08-16T14:35:49Z</time>
      </trkpt>
      <trkpt lat="44.45417" lon="3.93164">
        <ele>624.1</ele>
        <time>2012-08-16T14:36:15Z</time>
      </trkpt>
      <trkpt lat="44.4543" lon="3.93172">
        <ele>624.1</ele>
        <time>2012-08-16T14:36:42Z</time>
      </trkpt>
      <trkpt lat="44.45442" lon="3.9318">
        <ele>624.1</ele>
        <time>2012-08-16T14:36:55Z</time>
      </trkpt>
      <trkpt lat="44.45455" lon="3.93189">
        <ele>624.1</ele>
        <time>2012-08-16T14:37:10Z</time>
      </trkpt>
      <trkpt lat="44.45468" lon="3.93199">
        <ele>623.5</ele>
        <time>2012-08-16T14:37:30Z</time>
      </trkpt>
      <trkpt lat="44.45481" lon="3.93209">
        <ele>620.4</ele>
        <time>2012-08-16T14:37:49Z</time>
      </trkpt>
      <trkpt lat="44.45502" lon="3.93188">
        <ele>623.6</ele>
        <time>2012-08-16T14:38:09Z</time>
      </trkpt>
      <trkpt lat="44.45502" lon="3.93188">
        <ele>623.6</ele>
        <time>2012-08-16T14:38:41Z</time>
      </trkpt>
      <trkpt lat="44.45509" lon="3.9317">
        <ele>628.8</ele>
        <time>2012-08-16T14:38:45Z</time>
      </trkpt>
      <trkpt lat="44.4551" lon="3.93151">
        <ele>628.8</ele>
        <time>2012-08-16T14:38:59Z</time>
      </trkpt>
      <trkpt lat="44.45516" lon="3.93134">
        <ele>628.8</ele>
        <time>2012-08-16T14:39:09Z</time>
      </trkpt>
      <trkpt lat="44.45522" lon="3.93117">
        <ele>628.8</ele>
        <time>2012-08-16T14:39:19Z</time>
      </trkpt>
      <trkpt lat="44.45534" lon="3.93104">
        <ele>628.8</ele>
        <time>2012-08-16T14:39:30Z</time>
      </trkpt>
      <trkpt lat="44.45541" lon="3.93086">
        <ele>628.8</ele>
        <time>2012-08-16T14:39:43Z</time>
      </trkpt>
      <trkpt lat="44.45546" lon="3.93068">
        <ele>628.8</ele>
        <time>2012-08-16T14:39:57Z</time>
      </trkpt>
      <trkpt lat="44.45554" lon="3.93046">
        <ele>628.8</ele>
        <time>2012-08-16T14:40:11Z</time>
      </trkpt>
      <trkpt lat="44.45565" lon="3.93033">
        <ele>628.8</ele>
        <time>2012-08-16T14:40:26Z</time>
      </trkpt>
      <trkpt lat="44.45576" lon="3.9302">
        <ele>627.4</ele>
        <time>2012-08-16T14:40:37Z</time>
      </trkpt>
      <trkpt lat="44.45582" lon="3.93001">
        <ele>614.2</ele>
        <time>2012-08-16T14:40:49Z</time>
      </trkpt>
      <trkpt lat="44.45587" lon="3.92982">
        <ele>614.2</ele>
        <time>2012-08-16T14:41:00Z</time>
      </trkpt>
      <trkpt lat="44.45596" lon="3.92967">
        <ele>614.2</ele>
        <time>2012-08-16T14:41:09Z</time>
      </trkpt>
      <trkpt lat="44.45606" lon="3.92952">
        <ele>617.9</ele>
        <time>2012-08-16T14:41:20Z</time>
      </trkpt>
      <trkpt lat="44.45616" lon="3.92938">
        <ele>622.2</ele>
        <time>2012-08-16T14:41:33Z</time>
      </trkpt>
      <trkpt lat="44.45628" lon="3.92926">
        <ele>625.5</ele>
        <time>2012-08-16T14:41:44Z</time>
      </trkpt>
      <trkpt lat="44.45641" lon="3.92919">
        <ele>625.5</ele>
        <time>2012-08-16T14:41:54Z</time>
      </trkpt>
      <trkpt lat="44.45655" lon="3.92921">
        <ele>625.5</ele>
        <time>2012-08-16T14:42:05Z</time>
      </trkpt>
      <trkpt lat="44.45668" lon="3.92928">
        <ele>625.5</ele>
        <time>2012-08-16T14:42:15Z</time>
      </trkpt>
      <trkpt lat="44.45683" lon="3.92929">
        <ele>625.5</ele>
        <time>2012-08-16T14:42:30Z</time>
      </trkpt>
      <trkpt lat="44.45696" lon="3.92927">
        <ele>625.5</ele>
        <time>2012-08-16T14:42:42Z</time>
      </trkpt>
      <trkpt lat="44.4571" lon="3.92929">
        <ele>625.5</ele>
        <time>2012-08-16T14:42:56Z</time>
      </trkpt>
      <trkpt lat="44.45726" lon="3.92926">
        <ele>625.5</ele>
        <time>2012-08-16T14:43:08Z</time>
      </trkpt>
      <trkpt lat="44.45741" lon="3.92911">
        <ele>625.5</ele>
        <time>2012-08-16T14:43:21Z</time>
      </trkpt>
      <trkpt lat="44.45748" lon="3.92894">
        <ele>625.5</ele>
        <time>2012-08-16T14:43:36Z</time>
      </trkpt>
      <trkpt lat="44.45754" lon="3.92878">
        <ele>625.5</ele>
        <time>2012-08-16T14:43:50Z</time>
      </trkpt>
      <trkpt lat="44.45767" lon="3.92868">
        <ele>625.5</ele>
        <time>2012-08-16T14:43:59Z</time>
      </trkpt>
      <trkpt lat="44.45779" lon="3.92858">
        <ele>625.5</ele>
        <time>2012-08-16T14:44:12Z</time>
      </trkpt>
      <trkpt lat="44.45798" lon="3.92821">
        <ele>619</ele>
        <time>2012-08-16T14:44:33Z</time>
      </trkpt>
      <trkpt lat="44.45798" lon="3.92821">
        <ele>619</ele>
        <time>2012-08-16T14:45:40Z</time>
      </trkpt>
      <trkpt lat="44.45807" lon="3.92798">
        <ele>612.4</ele>
        <time>2012-08-16T14:45:42Z</time>
      </trkpt>
      <trkpt lat="44.45798" lon="3.92798">
        <ele>613</ele>
        <time>2012-08-16T14:46:03Z</time>
      </trkpt>
      <trkpt lat="44.45798" lon="3.92798">
        <ele>613</ele>
        <time>2012-08-16T15:04:38Z</time>
      </trkpt>
      <trkpt lat="44.45803" lon="3.92796">
        <ele>613.5</ele>
        <time>2012-08-16T15:04:45Z</time>
      </trkpt>
      <trkpt lat="44.45792" lon="3.92809">
        <ele>613.5</ele>
        <time>2012-08-16T15:05:10Z</time>
      </trkpt>
      <trkpt lat="44.458" lon="3.9282">
        <ele>613.5</ele>
        <time>2012-08-16T15:05:31Z</time>
      </trkpt>
    </trkseg>
  </trk>
</gpx>